nws-alerts: Checking more than four warning/county codes can delay the loading of your pages. You should use a cron job to get the data.

Nearby METAR Reports

 

KLBE - Latrobe/Westmorl, Pennsylvania, USA
Distance from station: SE 16mi, 26km
Updated: Mon, 25-Jun-2018 3:55am EDT
Mist, Overcast
Mist, Overcast
 Wind from calm
Wind: Calm
Temperature: 64°F , 18°C
Dew Point: 64°F , 18°C
Humidity: 100%
Barometer: 30.05 inHg , 1017.6 hPa
Summary: Mist
Clouds: Overcast
Visibility: 5 miles , 8 km
Cloud details: Partly cloudy 500 ft
Mostly cloudy 1000 ft
Overcast 1700 ft
2018/06/25 07:55 KLBE 250755Z AUTO 00000KT 5SM BR SCT005 BKN010 OVC017 18/18 A3005 RMK AO2
KAGC - Pittsburgh/Alleg, Pennsylvania, USA
Distance from station: WSW 18mi, 30km
Updated: Mon, 25-Jun-2018 3:53am EDT
Overcast
Overcast
 Wind from varies
Wind: varies 5 mph , 7 km/h
Temperature: 63°F , 17°C
Dew Point: 63°F , 17°C
Humidity: 100%
Barometer: 30.05 inHg , 1017.6 hPa
Clouds: Overcast
Visibility: 10 miles , 16 km
Cloud details: Partly cloudy 800 ft
Overcast 2600 ft
2018/06/25 07:53 KAGC 250753Z VRB04KT 10SM SCT008 OVC026 17/17 A3005 RMK AO2 SLP171 T01720167
 
KBTP - Butler Co., Pennsylvania, USA
Distance from station: NW 29mi, 47km
Updated: Mon, 25-Jun-2018 3:56am EDT
Mostly cloudy
Mostly cloudy
 Wind from N
Wind: N 3 mph , 6 km/h
Temperature: 63°F , 17°C
Dew Point: 59°F , 15°C
Humidity: 88%
Barometer: 30.08 inHg , 1018.6 hPa
Clouds: Mostly cloudy
Visibility: 10 miles , 16 km
Cloud details: Mostly cloudy 1400 ft
2018/06/25 07:56 KBTP 250756Z AUTO 01003KT 10SM BKN014 17/15 A3008 RMK AO2 SLP183 T01670150
KIDI - Indiana/Stewart, Pennsylvania, USA
Distance from station: ENE 29mi, 47km
Updated: Mon, 25-Jun-2018 3:55am EDT
Overcast
Overcast
 Wind from calm
Wind: Calm
Temperature: 64°F , 18°C
Dew Point: 61°F , 16°C
Humidity: 88%
Barometer: 30.09 inHg , 1019 hPa
Clouds: Overcast
Visibility: 10 miles , 16 km
Cloud details: Mostly cloudy 1800 ft
Overcast 3300 ft
2018/06/25 07:55 KIDI 250755Z AUTO 00000KT 10SM BKN018 OVC033 18/16 A3009 RMK A01
 
KPIT - Pittsburgh, Pennsylvania, USA
Distance from station: W 36mi, 57km
Updated: Mon, 25-Jun-2018 3:51am EDT
Overcast
Overcast
 Wind from N
Wind: N 9 mph , 15 km/h
Temperature: 64°F , 18°C
Dew Point: 61°F , 16°C
Humidity: 88%
Barometer: 30.06 inHg , 1017.9 hPa
Clouds: Overcast
Visibility: 10 miles , 16 km
Cloud details: Few Clouds 600 ft
Mostly cloudy 1200 ft
Overcast 2500 ft
2018/06/25 07:51 KPIT 250751Z 35008KT 10SM FEW006 BKN012 OVC025 18/16 A3006 RMK AO2 SLP177 T01780161 $
KJST - Johnstown, Pennsylvania, USA
Distance from station: ESE 41mi, 66km
Updated: Mon, 25-Jun-2018 3:54am EDT
Overcast
Overcast
 Wind from NNW
Wind: NNW 7 mph , 11 km/h
Temperature: 63°F , 17°C
Dew Point: 61°F , 16°C
Humidity: 94%
Barometer: 30.05 inHg , 1017.6 hPa
Clouds: Overcast
Visibility: 8 miles , 13 km
Cloud details: Mostly cloudy 500 ft
Overcast 1100 ft
2018/06/25 07:54 KJST 250754Z AUTO 33006KT 8SM BKN005 OVC011 17/16 A3005 RMK AO2 RAB28E47 CIG 004V009 SLP167 P0000 T01720161
 
KAFJ - Washington, Pennsylvania, USA
Distance from station: WSW 42mi, 68km
Updated: Mon, 25-Jun-2018 3:56am EDT
Overcast
Overcast
 Wind from N
Wind: N 3 mph , 6 km/h
Temperature: 64°F , 18°C
Dew Point: 61°F , 16°C
Humidity: 88%
Barometer: 30.09 inHg , 1019 hPa
Clouds: Overcast
Visibility: 10 miles , 16 km
Cloud details: Mostly cloudy 1800 ft
Overcast 2300 ft
2018/06/25 07:56 KAFJ 250756Z AUTO 35003KT 10SM BKN018 OVC023 18/16 A3009 RMK AO2 SLP181 T01780161
KBVI - Beaver Falls Arp, Pennsylvania, USA
Distance from station: WNW 48mi, 77km
Updated: Sun, 24-Jun-2018 4:47pm EDT
NOT Current
Mostly cloudy
Mostly cloudy
 Wind from W
Wind: W 13 mph , 20 km/h
Temperature: 77°F , 25°C
Dew Point: 61°F , 16°C
Humidity: 57%
Barometer: 29.93 inHg , 1013.5 hPa
Clouds: Mostly cloudy
Visibility: 10 miles , 16 km
Cloud details: Partly cloudy 5000 ft
Mostly cloudy 6500 ft
2018/06/24 20:47 KBVI 242047Z 26011KT 10SM SCT050 BKN065 25/16 A2993 RMK LAST